Time;durP1;ratioP1;P1;durP2;ratioP2;P2;SDS_P1;SDS_P2;PMS_P1;PMS_P2;Temp;Humidity;BMP_temperature;BMP_pressure;BME280_temperature;BME280_humidity;BME280_pressure;Samples;Min_cycle;Max_cycle;Signal;HPM_P1;HPM_P2
2022/12/05 00:00:12;;;;;;;55.10;21.10;;;;;;;1.09;100.00;101633.97;5071680;28;20056;-92
2022/12/05 00:02:37;;;;;;;54.83;20.53;;;;;;;1.14;100.00;101647.47;5070287;28;20088;-92
2022/12/05 00:05:03;;;;;;;54.00;21.42;;;;;;;1.11;100.00;101647.81;5053203;28;20064;-92
2022/12/05 00:07:28;;;;;;;49.97;19.23;;;;;;;1.14;100.00;101651.91;5089476;28;20024;-92
2022/12/05 00:09:54;;;;;;;54.83;20.90;;;;;;;1.14;100.00;101650.09;5087069;28;20028;-92
2022/12/05 00:12:19;;;;;;;50.90;21.47;;;;;;;1.12;100.00;101653.91;5091712;28;20531;-92
2022/12/05 00:17:12;;;;;;;53.35;20.35;;;;;;;1.02;100.00;101628.56;5042702;28;20041;-91
2022/12/05 00:19:53;;;;;;;55.08;21.02;;;;;;;1.12;100.00;101651.25;5050807;28;20074;-92
2022/12/05 00:22:19;;;;;;;56.45;22.30;;;;;;;1.17;100.00;101652.41;5046888;28;20033;-93
2022/12/05 00:24:44;;;;;;;51.80;20.83;;;;;;;1.16;100.00;101649.91;5024070;28;20500;-92
2022/12/05 00:27:09;;;;;;;53.80;20.27;;;;;;;1.15;100.00;101654.41;5030400;28;20056;-92
2022/12/05 00:29:35;;;;;;;55.57;22.83;;;;;;;1.21;100.00;101650.22;5030103;28;20369;-91
2022/12/05 00:32:00;;;;;;;52.53;21.60;;;;;;;1.15;100.00;101645.63;5030989;28;20028;-92
2022/12/05 00:34:26;;;;;;;50.73;21.00;;;;;;;1.15;100.00;101638.56;5030717;28;20026;-91
2022/12/05 00:36:51;;;;;;;54.37;21.17;;;;;;;1.18;100.00;101638.22;5029106;28;20079;-92
2022/12/05 00:39:16;;;;;;;56.50;22.87;;;;;;;1.21;100.00;101637.03;5030703;28;20025;-92
2022/12/05 00:41:42;;;;;;;57.07;21.20;;;;;;;1.19;100.00;101639.00;5027275;28;20018;-92
2022/12/05 00:44:10;;;;;;;58.42;22.10;;;;;;;1.21;100.00;101637.84;5030559;28;20040;-91
2022/12/05 00:46:35;;;;;;;57.65;21.45;;;;;;;1.25;100.00;101635.69;5029161;28;20037;-92
2022/12/05 00:49:02;;;;;;;50.80;21.17;;;;;;;1.21;100.00;101635.19;5030627;28;20487;-92
2022/12/05 00:51:34;;;;;;;55.15;21.67;;;;;;;1.24;100.00;101636.69;5032439;28;20018;-92
2022/12/05 00:54:03;;;;;;;54.30;21.20;;;;;;;1.24;100.00;101631.41;5033834;28;20464;-91
2022/12/05 00:56:30;;;;;;;55.63;21.77;;;;;;;1.28;100.00;101634.50;5033888;28;20052;-91
2022/12/05 00:58:56;;;;;;;54.17;22.08;;;;;;;1.28;100.00;101640.59;5032306;28;20036;-91
2022/12/05 01:01:28;;;;;;;49.53;19.23;;;;;;;1.31;100.00;101636.78;5033512;28;20057;-91
2022/12/05 01:03:56;;;;;;;59.67;21.83;;;;;;;1.30;100.00;101638.59;5025406;28;20308;-91
2022/12/05 01:06:23;;;;;;;49.03;19.88;;;;;;;1.31;100.00;101640.25;5033649;28;20489;-90
2022/12/05 01:08:49;;;;;;;55.20;22.38;;;;;;;1.30;100.00;101646.53;5033572;28;20041;-90
2022/12/05 01:11:16;;;;;;;56.17;21.65;;;;;;;1.26;100.00;101633.84;5053512;28;20108;-90
2022/12/05 01:13:43;;;;;;;51.50;21.02;;;;;;;1.30;100.00;101649.16;5045776;28;20497;-90
2022/12/05 01:16:35;;;;;;;52.78;21.02;;;;;;;1.31;100.00;101647.34;5017992;28;20056;-90
2022/12/05 01:19:05;;;;;;;59.50;22.13;;;;;;;1.30;100.00;101651.81;5024050;28;20045;-90
2022/12/05 01:21:31;;;;;;;57.03;22.53;;;;;;;1.33;100.00;101659.38;5034016;28;20032;-91
2022/12/05 01:23:58;;;;;;;55.50;21.83;;;;;;;1.34;100.00;101655.75;5033713;28;20481;-91
2022/12/05 01:26:24;;;;;;;58.58;22.35;;;;;;;1.32;100.00;101649.00;5025957;28;20060;-92
2022/12/05 01:28:50;;;;;;;49.63;20.70;;;;;;;1.34;100.00;101655.75;5033410;28;20484;-92
2022/12/05 01:31:21;;;;;;;64.55;23.02;;;;;;;1.28;100.00;101645.88;5031331;28;20068;-91
2022/12/05 01:33:47;;;;;;;50.90;21.23;;;;;;;1.38;100.00;101658.03;5033221;28;20041;-91
2022/12/05 01:36:12;;;;;;;54.13;21.93;;;;;;;1.36;100.00;101659.03;5029776;28;20025;-92
2022/12/05 01:38:39;;;;;;;53.10;21.65;;;;;;;1.35;100.00;101654.75;5045864;28;20022;-90
2022/12/05 01:41:06;;;;;;;56.15;22.73;;;;;;;1.35;100.00;101659.22;5046721;28;20025;-90
2022/12/05 01:43:32;;;;;;;51.40;21.47;;;;;;;1.32;100.00;101654.28;5058844;28;20025;-91
2022/12/05 01:45:58;;;;;;;58.13;22.97;;;;;;;1.36;100.00;101660.88;5041657;28;20312;-91
2022/12/05 01:48:30;;;;;;;58.17;23.45;;;;;;;1.38;100.00;101669.41;5039405;28;20028;-91
2022/12/05 01:50:58;;;;;;;49.65;21.35;;;;;;;1.38;100.00;101677.31;5031660;28;20477;-91
2022/12/05 01:53:25;;;;;;;60.57;21.60;;;;;;;1.40;100.00;101677.16;5033917;28;20049;-91
2022/12/05 01:55:51;;;;;;;54.90;21.23;;;;;;;1.36;100.00;101672.22;5032057;28;20280;-91
2022/12/05 01:58:18;;;;;;;56.50;22.05;;;;;;;1.41;100.00;101681.47;5030232;28;20026;-91
2022/12/05 02:00:43;;;;;;;54.45;21.25;;;;;;;1.36;100.00;101666.16;5051584;28;20051;-91
2022/12/05 02:03:16;;;;;;;58.37;22.07;;;;;;;1.45;100.00;101680.94;5047673;28;20060;-90
2022/12/05 02:05:41;;;;;;;55.40;22.77;;;;;;;1.43;100.00;101679.47;5030643;28;20303;-91
2022/12/05 02:08:08;;;;;;;54.20;21.73;;;;;;;1.44;100.00;101683.75;5031009;28;20029;-91
2022/12/05 02:10:39;;;;;;;53.58;21.13;;;;;;;1.43;100.00;101684.75;5029384;28;20465;-91
2022/12/05 02:13:23;;;;;;;55.95;22.25;;;;;;;1.44;100.00;101681.13;5031531;28;20053;-91
2022/12/05 02:16:10;;;;;;;55.30;21.58;;;;;;;1.43;100.00;101682.91;5031930;28;20049;-91
2022/12/05 02:18:52;;;;;;;54.50;21.87;;;;;;;1.44;100.00;101684.56;5031432;28;20037;-90
2022/12/05 02:21:39;;;;;;;56.00;22.03;;;;;;;1.45;100.00;101675.66;5031368;28;20297;-90
2022/12/05 02:24:26;;;;;;;59.72;22.55;;;;;;;1.46;100.00;101681.75;5033178;28;20037;-91
2022/12/05 02:27:22;;;;;;;52.45;20.77;;;;;;;1.45;100.00;101672.19;5032063;28;20056;-91
2022/12/05 02:29:55;;;;;;;56.80;22.55;;;;;;;1.44;100.00;101674.00;5045046;28;20029;-90
2022/12/05 02:32:25;;;;;;;54.60;20.95;;;;;;;1.44;100.00;101678.47;5033146;28;20032;-90
2022/12/05 02:35:11;;;;;;;50.63;20.85;;;;;;;1.38;100.00;101668.59;5030719;28;20057;-90
2022/12/05 02:37:59;;;;;;;58.17;22.95;;;;;;;1.41;100.00;101673.53;5030750;28;20064;-90
2022/12/05 02:40:40;;;;;;;58.13;22.02;;;;;;;1.40;100.00;101672.69;5030322;28;20039;-91
2022/12/05 02:43:24;;;;;;;52.80;21.17;;;;;;;1.40;100.00;101671.88;5030793;28;20443;-90
2022/12/05 02:45:55;;;;;;;56.93;21.87;;;;;;;1.35;100.00;101670.59;5030252;28;20963;-90
2022/12/05 02:48:22;;;;;;;48.13;21.98;;;;;;;1.41;100.00;101676.97;5032911;28;20101;-90
2022/12/05 02:50:51;;;;;;;49.95;19.88;;;;;;;1.40;100.00;101670.06;5030173;28;20630;-89
2022/12/05 02:53:17;;;;;;;56.67;22.08;;;;;;;1.39;100.00;101673.69;5027355;28;20125;-89
2022/12/05 02:55:48;;;;;;;51.17;21.20;;;;;;;1.40;100.00;101671.88;5028878;28;20060;-89
2022/12/05 02:58:20;;;;;;;55.47;21.05;;;;;;;1.42;100.00;101683.09;5031634;28;20140;-90
2022/12/05 03:00:48;;;;;;;54.97;20.63;;;;;;;1.44;100.00;101683.75;5012143;28;20068;-92
2022/12/05 03:03:18;;;;;;;59.40;21.55;;;;;;;1.41;100.00;101676.19;5012948;28;20040;-90
2022/12/05 03:06:05;;;;;;;53.30;20.20;;;;;;;1.46;100.00;101681.75;5031071;28;20021;-89
2022/12/05 03:08:38;;;;;;;54.45;19.25;;;;;;;1.44;100.00;101684.56;5031631;28;20095;-90
2022/12/05 03:11:05;;;;;;;51.85;20.67;;;;;;;1.45;100.00;101682.75;5029707;28;20017;-90
2022/12/05 03:13:38;;;;;;;53.05;19.95;;;;;;;1.45;100.00;101683.56;5029881;28;20116;-90
2022/12/05 03:16:11;;;;;;;55.47;22.35;;;;;;;1.46;100.00;101673.84;5030876;28;20030;-90
2022/12/05 03:18:43;;;;;;;54.75;21.83;;;;;;;1.42;100.00;101669.91;5031810;28;20539;-89
2022/12/05 03:21:16;;;;;;;60.85;21.98;;;;;;;1.45;100.00;101673.00;5030513;28;20021;-89
2022/12/05 03:23:49;;;;;;;64.85;23.58;;;;;;;1.46;100.00;101679.13;5028619;28;20389;-90
2022/12/05 03:26:36;;;;;;;54.17;21.50;;;;;;;1.46;100.00;101676.47;5030249;28;20021;-90
2022/12/05 03:29:19;;;;;;;57.53;21.47;;;;;;;1.46;100.00;101679.13;5030542;28;20417;-90
2022/12/05 03:32:05;;;;;;;60.05;23.02;;;;;;;1.45;100.00;101674.84;5028983;28;20052;-90
2022/12/05 03:35:18;;;;;;;53.60;21.13;;;;;;;1.46;100.00;101679.94;5012423;28;20034;-90
2022/12/05 03:37:52;;;;;;;56.28;20.80;;;;;;;1.44;100.00;101668.72;4929646;29;20035;-90
2022/12/05 03:40:43;;;;;;;58.22;21.17;;;;;;;1.46;100.00;101677.28;4934962;29;20114;-90
2022/12/05 03:43:22;;;;;;;56.47;20.38;;;;;;;1.48;100.00;101674.47;4994087;28;20034;-92
2022/12/05 03:45:50;;;;;;;58.10;21.60;;;;;;;1.46;100.00;101671.19;5016673;28;20040;-89
2022/12/05 03:48:46;;;;;;;58.55;20.92;;;;;;;1.48;100.00;101669.16;5030439;28;20072;-90
2022/12/05 03:51:14;;;;;;;58.47;20.57;;;;;;;1.48;100.00;101670.00;5034118;28;20731;-90
2022/12/05 03:53:46;;;;;;;59.15;21.50;;;;;;;1.48;100.00;101674.47;5024133;28;20065;-89
2022/12/05 03:56:18;;;;;;;61.45;22.35;;;;;;;1.47;100.00;101665.72;5021480;28;20384;-91
2022/12/05 03:59:17;;;;;;;55.55;21.95;;;;;;;1.48;100.00;101670.00;5030903;28;20067;-90
2022/12/05 04:01:45;;;;;;;56.33;21.52;;;;;;;1.49;100.00;101670.81;5010478;28;20038;-89
2022/12/05 04:04:17;;;;;;;52.55;20.38;;;;;;;1.50;100.00;101678.59;5031391;28;20026;-90
2022/12/05 04:06:47;;;;;;;54.08;20.88;;;;;;;1.50;100.00;101672.47;5031012;28;20018;-89
2022/12/05 04:09:43;;;;;;;50.83;19.30;;;;;;;1.49;100.00;101682.22;5031468;28;20025;-88
2022/12/05 04:12:14;;;;;;;64.67;22.37;;;;;;;1.50;100.00;101675.09;5015171;28;20292;-88
2022/12/05 04:14:43;;;;;;;54.80;20.75;;;;;;;1.50;100.00;101672.47;5026641;28;20025;-88
2022/12/05 04:17:33;;;;;;;53.78;21.90;;;;;;;1.51;100.00;101679.38;5013534;28;20033;-89
2022/12/05 04:23:04;;;;;;;56.00;20.35;;;;;;;1.51;100.00;101676.75;5022967;28;20096;-88
2022/12/05 04:25:53;;;;;;;60.03;21.40;;;;;;;1.51;100.00;101679.38;5026737;28;20036;-88
2022/12/05 04:29:00;;;;;;;53.42;21.35;;;;;;;1.57;100.00;101688.44;5025113;28;20033;-88
2022/12/05 04:31:33;;;;;;;54.10;20.27;;;;;;;1.48;100.00;101682.38;5027353;28;20030;-88
2022/12/05 04:34:05;;;;;;;50.93;20.47;;;;;;;1.51;100.00;101689.97;5015516;28;20374;-89
2022/12/05 04:36:32;;;;;;;57.72;20.70;;;;;;;1.50;100.00;101690.94;5033549;28;20067;-89
2022/12/05 04:39:18;;;;;;;50.53;20.17;;;;;;;1.49;100.00;101681.38;5033950;28;20389;-89
2022/12/05 04:41:52;;;;;;;57.15;21.95;;;;;;;1.52;100.00;101681.03;5033456;28;20042;-89
2022/12/05 04:44:22;;;;;;;52.92;20.77;;;;;;;1.52;100.00;101694.25;5034657;28;20416;-90
2022/12/05 04:46:49;;;;;;;53.72;22.10;;;;;;;1.52;100.00;101691.59;5032517;28;20426;-89
2022/12/05 04:49:20;;;;;;;54.42;21.65;;;;;;;1.54;100.00;101694.91;5034621;28;20385;-88
2022/12/05 04:51:51;;;;;;;57.83;22.88;;;;;;;1.54;100.00;101702.81;5034226;28;20038;-90
2022/12/05 04:54:22;;;;;;;55.87;21.93;;;;;;;1.52;100.00;101688.97;5034839;28;20036;-89
2022/12/05 04:56:51;;;;;;;55.73;21.93;;;;;;;1.49;100.00;101684.03;5042411;28;20331;-91
2022/12/05 04:59:16;;;;;;;54.33;21.95;;;;;;;1.54;100.00;101694.09;5039958;28;20018;-89
2022/12/05 05:01:47;;;;;;;61.90;22.42;;;;;;;1.54;100.00;101691.44;5036939;28;20036;-89
2022/12/05 05:04:19;;;;;;;55.80;21.70;;;;;;;1.53;100.00;101690.59;5022453;28;20045;-89
2022/12/05 05:06:44;;;;;;;55.00;21.37;;;;;;;1.52;100.00;101681.03;5025959;28;20803;-89
2022/12/05 05:09:10;;;;;;;61.40;21.38;;;;;;;1.54;100.00;101692.25;5016541;28;20123;-90
2022/12/05 05:11:36;;;;;;;54.97;22.07;;;;;;;1.53;100.00;101690.59;5034243;28;20044;-90
2022/12/05 05:14:02;;;;;;;54.90;21.77;;;;;;;1.54;100.00;101697.53;5034002;28;20033;-90
2022/12/05 05:16:31;;;;;;;54.17;21.05;;;;;;;1.55;100.00;101703.66;5032883;28;20064;-89
2022/12/05 05:18:57;;;;;;;54.67;21.08;;;;;;;1.56;100.00;101703.47;5032200;28;20389;-91
2022/12/05 05:21:24;;;;;;;55.40;21.40;;;;;;;1.58;100.00;101708.56;5032403;28;20085;-91
2022/12/05 05:23:49;;;;;;;57.45;21.83;;;;;;;1.59;100.00;101702.28;5034119;28;20121;-92
2022/12/05 05:26:15;;;;;;;57.87;20.90;;;;;;;1.55;100.00;101696.53;5033098;28;20096;-90
2022/12/05 05:28:41;;;;;;;54.33;20.63;;;;;;;1.56;100.00;101698.19;5032803;28;20793;-90
2022/12/05 05:31:06;;;;;;;54.97;20.95;;;;;;;1.60;100.00;101710.06;5030621;28;20148;-89
2022/12/05 05:33:33;;;;;;;57.10;20.70;;;;;;;1.56;100.00;101695.53;5032336;28;20041;-89
2022/12/05 05:36:16;;;;;;;54.35;21.40;;;;;;;1.60;100.00;101707.41;5031721;28;20150;-88
2022/12/05 05:38:46;;;;;;;52.28;20.88;;;;;;;1.60;100.00;101696.00;5033049;28;20481;-89
2022/12/05 05:41:13;;;;;;;54.00;21.23;;;;;;;1.60;100.00;101707.41;5033333;28;20029;-90
2022/12/05 05:46:16;;;;;;;48.42;19.55;;;;;;;1.53;100.00;101701.19;5179545;22;20065;-89
2022/12/05 05:48:41;;;;;;;52.40;19.73;;;;;;;1.60;100.00;101699.47;5053741;28;20032;-89
2022/12/05 05:51:09;;;;;;;49.97;20.33;;;;;;;1.57;100.00;101705.13;5052570;28;20013;-89
2022/12/05 05:53:35;;;;;;;55.58;20.23;;;;;;;1.58;100.00;101712.03;5057676;28;20029;-88
2022/12/05 05:56:05;;;;;;;54.77;20.57;;;;;;;1.54;100.00;101710.75;5052349;28;20032;-88
2022/12/05 05:58:31;;;;;;;52.53;20.50;;;;;;;1.55;100.00;101709.75;5060489;28;20266;-89
2022/12/05 06:01:11;;;;;;;52.50;20.15;;;;;;;1.57;100.00;101714.84;5071651;28;20498;-88
2022/12/05 06:03:37;;;;;;;53.05;20.85;;;;;;;1.58;100.00;101708.56;5072003;28;20017;-88
2022/12/05 06:06:05;;;;;;;52.05;19.77;;;;;;;1.53;100.00;101703.81;5072215;28;20039;-88
2022/12/05 06:08:34;;;;;;;50.77;20.20;;;;;;;1.55;100.00;101712.41;5072434;28;20024;-88
2022/12/05 06:11:03;;;;;;;53.13;19.83;;;;;;;1.56;100.00;101721.97;5066558;28;20790;-88
2022/12/05 06:13:28;;;;;;;55.40;20.50;;;;;;;1.54;100.00;101716.03;5071542;28;20024;-88
2022/12/05 06:15:53;;;;;;;48.53;18.80;;;;;;;1.58;100.00;101719.13;5070858;28;20040;-88
2022/12/05 06:18:19;;;;;;;55.45;20.90;;;;;;;1.54;100.00;101713.38;5071245;28;20533;-88
2022/12/05 06:20:55;;;;;;;53.20;20.03;;;;;;;1.52;100.00;101712.75;5068978;28;20021;-88
2022/12/05 06:23:21;;;;;;;52.60;19.73;;;;;;;1.59;100.00;101721.63;5061490;28;20085;-87
2022/12/05 06:25:49;;;;;;;47.33;19.13;;;;;;;1.59;100.00;101721.63;5071619;28;20322;-88
2022/12/05 06:28:15;;;;;;;49.47;18.17;;;;;;;1.57;100.00;101720.13;5072294;28;20392;-89
2022/12/05 06:30:40;;;;;;;50.50;19.67;;;;;;;1.58;100.00;101724.41;5053127;28;20020;-91
2022/12/05 06:33:05;;;;;;;48.83;19.87;;;;;;;1.59;100.00;101729.53;5072557;28;20028;-89
2022/12/05 06:35:31;;;;;;;53.60;19.07;;;;;;;1.60;100.00;101723.25;5071329;28;20021;-88
2022/12/05 06:37:56;;;;;;;54.63;19.63;;;;;;;1.59;100.00;101718.13;5071580;28;20027;-88
2022/12/05 06:40:21;;;;;;;48.23;19.93;;;;;;;1.62;100.00;101729.19;5069815;28;20360;-89
2022/12/05 06:42:46;;;;;;;48.17;19.87;;;;;;;1.59;100.00;101724.25;5071032;28;20108;-89
2022/12/05 06:45:12;;;;;;;53.03;19.70;;;;;;;1.63;100.00;101730.00;5067453;28;20032;-89
2022/12/05 06:47:37;;;;;;;48.13;18.70;;;;;;;1.59;100.00;101724.25;5070369;28;20032;-89
2022/12/05 06:50:02;;;;;;;49.83;18.80;;;;;;;1.60;100.00;101723.25;5070804;28;20020;-89
2022/12/05 06:52:28;;;;;;;56.97;20.53;;;;;;;1.61;100.00;101726.72;5071614;28;20082;-89
2022/12/05 06:54:53;;;;;;;46.93;19.50;;;;;;;1.61;100.00;101727.56;5053218;28;20453;-88
2022/12/05 06:57:20;;;;;;;44.85;17.75;;;;;;;1.64;100.00;101726.38;5070862;28;20039;-88
2022/12/05 06:59:45;;;;;;;44.47;18.23;;;;;;;1.65;100.00;101738.59;5068994;28;20028;-89
2022/12/05 07:02:14;;;;;;;47.92;18.88;;;;;;;1.66;100.00;101735.75;5070107;28;20028;-88
2022/12/05 07:04:40;;;;;;;43.93;18.23;;;;;;;1.66;100.00;101738.41;5070634;28;20017;-88
2022/12/05 07:07:05;;;;;;;46.78;18.05;;;;;;;1.67;100.00;101742.69;5067372;28;20032;-90
2022/12/05 07:20:01;;;;;;;39.65;15.73;;;;;;;1.68;100.00;101754.09;5006907;28;20422;-88
2022/12/05 07:22:27;;;;;;;41.53;17.03;;;;;;;1.67;100.00;101752.44;5015127;28;20034;-90
2022/12/05 07:25:08;;;;;;;43.20;17.30;;;;;;;1.69;100.00;101762.81;5013926;28;20040;-89
2022/12/05 07:27:33;;;;;;;44.73;18.63;;;;;;;1.67;100.00;101763.81;5021329;28;20266;-92
2022/12/05 07:29:58;;;;;;;44.87;18.03;;;;;;;1.69;100.00;101768.13;5045657;28;20288;-96
2022/12/05 07:35:14;;;;;;;43.97;17.40;;;;;;;1.69;100.00;101770.75;5175778;22;20045;-93
2022/12/05 07:37:39;;;;;;;48.57;19.47;;;;;;;1.70;100.00;101769.75;5066001;28;20036;-96
2022/12/05 07:40:05;;;;;;;50.07;18.77;;;;;;;1.69;100.00;101768.94;5065039;28;20207;-96
2022/12/05 07:45:41;;;;;;;49.80;18.92;;;;;;;1.72;100.00;101770.41;5405275;22;20527;-94
2022/12/05 07:48:13;;;;;;;45.28;17.23;;;;;;;1.55;100.00;101744.09;5068327;28;20108;-93
2022/12/05 07:57:38;;;;;;;39.13;16.10;;;;;;;1.63;100.00;101751.16;5033577;28;20377;-96
2022/12/05 08:00:05;;;;;;;44.17;17.50;;;;;;;1.68;100.00;101762.03;5049196;28;20037;-96
2022/12/05 08:02:31;;;;;;;43.95;16.63;;;;;;;1.75;100.00;101776.16;5052343;28;20037;-96
2022/12/05 08:04:56;;;;;;;40.10;16.73;;;;;;;1.68;100.00;101762.03;5130625;23;20041;-96
2022/12/05 08:25:39;;;;;;;47.08;17.13;;;;;;;1.77;100.00;101790.03;5533515;22;20056;-96
2022/12/05 08:28:05;;;;;;;44.55;16.98;;;;;;;1.85;100.00;101805.00;5056508;28;20029;-95
2022/12/05 08:30:50;;;;;;;41.50;18.27;;;;;;;1.76;100.00;101783.09;5043395;28;20499;-95
2022/12/05 08:36:38;;;;;;;39.10;16.23;;;;;;;1.86;100.00;101806.66;5058950;28;20041;-96
2022/12/05 08:39:10;;;;;;;39.70;16.97;;;;;;;1.90;100.00;101807.13;5057586;28;20832;-94
2022/12/05 08:44:26;;;;;;;41.88;16.48;;;;;;;1.98;100.00;101822.13;5292300;22;20058;-96
2022/12/05 08:50:24;;;;;;;46.08;16.88;;;;;;;2.01;100.00;101816.50;5706057;22;20060;-92
2022/12/05 08:52:49;;;;;;;46.05;16.58;;;;;;;1.92;100.00;101805.13;5060797;28;20021;-94
2022/12/05 08:55:20;;;;;;;39.47;16.63;;;;;;;1.92;100.00;101798.03;5065765;28;20067;-96
2022/12/05 08:57:46;;;;;;;40.78;17.10;;;;;;;2.02;100.00;101821.59;5078372;28;20020;-96
2022/12/05 09:00:16;;;;;;;41.80;17.10;;;;;;;1.93;100.00;101802.31;5358527;22;20103;-96
2022/12/05 09:02:49;;;;;;;43.23;17.43;;;;;;;2.05;100.00;101828.34;5049685;28;20288;-96
2022/12/05 09:05:32;;;;;;;45.60;17.75;;;;;;;2.06;100.00;101816.75;5036974;28;20072;-96
2022/12/05 09:08:03;;;;;;;42.22;17.00;;;;;;;2.10;100.00;101829.44;5046784;28;20776;-96
2022/12/05 09:10:29;;;;;;;48.05;18.38;;;;;;;1.98;100.00;101815.00;5023893;28;20421;-96
2022/12/05 09:15:49;;;;;;;45.45;17.63;;;;;;;2.04;100.00;101824.88;5041499;28;20040;-95
2022/12/05 09:18:15;;;;;;;46.03;17.97;;;;;;;2.15;100.00;101838.69;5016862;28;20025;-95
2022/12/05 09:20:40;;;;;;;44.60;17.20;;;;;;;2.07;100.00;101835.13;5032478;28;20117;-94
2022/12/05 09:23:34;;;;;;;39.87;16.23;;;;;;;2.18;100.00;101847.09;5033445;28;20402;-94
2022/12/05 09:26:11;;;;;;;46.10;16.88;;;;;;;2.09;100.00;101830.47;5031232;28;20049;-94
2022/12/05 09:28:38;;;;;;;44.58;16.98;;;;;;;2.11;100.00;101838.22;5018772;28;20041;-95
2022/12/05 09:31:34;;;;;;;;;;;;;;;;;;;;;
2022/12/05 09:34:00;;;;;;;39.07;17.17;;;;;;;2.11;100.00;101833.75;5036692;28;20635;-96
2022/12/05 09:36:28;;;;;;;47.37;19.13;;;;;;;2.17;100.00;101848.09;5022122;28;20308;-95
2022/12/05 09:38:58;;;;;;;41.55;17.17;;;;;;;2.20;100.00;101846.91;5024127;28;20679;-96
2022/12/05 09:44:55;;;;;;;45.37;16.47;;;;;;;2.24;100.00;101861.44;5027249;28;20392;-95
2022/12/05 09:47:26;;;;;;;37.70;16.35;;;;;;;2.23;100.00;101865.06;5032659;28;20026;-94
2022/12/05 09:50:13;;;;;;;42.00;15.73;;;;;;;2.32;100.00;101871.94;5030677;28;20576;-94
2022/12/05 09:52:47;;;;;;;34.90;15.05;;;;;;;2.23;100.00;101857.94;5032222;28;20481;-95
2022/12/05 09:55:15;;;;;;;37.35;14.85;;;;;;;2.21;100.00;101859.94;5030330;28;20048;-94
2022/12/05 09:58:01;;;;;;;34.47;15.35;;;;;;;2.24;100.00;101872.00;5031812;28;20041;-96
2022/12/05 10:00:29;;;;;;;36.28;16.30;;;;;;;2.23;100.00;101868.53;5030774;28;20041;-93
2022/12/05 10:03:33;;;;;;;32.47;14.30;;;;;;;2.25;100.00;101863.09;5032354;28;20067;-94
2022/12/05 10:06:10;;;;;;;41.93;14.40;;;;;;;2.25;100.00;101866.53;5029693;28;20187;-95
2022/12/05 10:08:45;;;;;;;32.92;15.38;;;;;;;2.30;100.00;101862.53;5010044;28;20793;-95
2022/12/05 10:11:23;;;;;;;39.28;16.05;;;;;;;2.37;100.00;101866.13;5025254;28;20053;-92
2022/12/05 10:14:07;;;;;;;31.58;15.25;;;;;;;2.41;100.00;101864.75;5022559;28;20064;-93
2022/12/05 10:16:44;;;;;;;32.65;14.50;;;;;;;2.45;100.00;101867.91;5031528;28;20033;-94
2022/12/05 10:19:14;;;;;;;34.25;14.90;;;;;;;2.44;100.00;101867.06;5024910;28;20037;-96
2022/12/05 10:22:22;;;;;;;29.85;14.00;;;;;;;2.47;100.00;101866.72;5035091;28;20029;-94
2022/12/05 10:24:53;;;;;;;30.77;14.60;;;;;;;2.42;100.00;101863.75;5028961;28;20036;-94
2022/12/05 10:27:29;;;;;;;30.10;14.00;;;;;;;2.40;100.00;101863.13;5031215;28;20316;-94
2022/12/05 10:30:22;;;;;;;32.97;14.63;;;;;;;2.40;100.00;101857.81;5030961;28;20431;-93
2022/12/05 10:32:58;;;;;;;32.83;14.90;;;;;;;2.39;100.00;101866.75;5026327;28;20044;-90
2022/12/05 10:35:27;;;;;;;29.73;15.02;;;;;;;2.37;100.00;101869.59;5026688;28;20036;-94
2022/12/05 10:37:56;;;;;;;34.63;14.13;;;;;;;2.38;100.00;101868.59;5029081;28;20091;-95
2022/12/05 10:43:40;;;;;;;31.43;13.73;;;;;;;2.46;100.00;101870.34;5034045;28;20464;-93
2022/12/05 10:46:17;;;;;;;33.10;13.90;;;;;;;2.48;100.00;101863.06;4972799;28;20296;-94
2022/12/05 10:48:43;;;;;;;31.75;14.23;;;;;;;2.52;100.00;101872.28;5031259;28;20061;-93
2022/12/05 10:51:16;;;;;;;34.00;14.82;;;;;;;2.46;100.00;101865.06;5029107;28;20075;-93
2022/12/05 10:53:48;;;;;;;33.28;14.75;;;;;;;2.46;100.00;101866.91;5018050;28;20032;-92
2022/12/05 10:56:38;;;;;;;32.17;13.70;;;;;;;2.48;100.00;101867.50;5023784;28;20026;-92
2022/12/05 10:59:05;;;;;;;29.38;14.10;;;;;;;2.49;100.00;101866.53;5029892;28;20422;-92
2022/12/05 11:01:31;;;;;;;30.87;13.13;;;;;;;2.52;100.00;101864.34;5021002;28;20033;-92
2022/12/05 11:04:07;;;;;;;30.73;13.80;;;;;;;2.58;100.00;101868.91;5035044;28;20299;-92
2022/12/05 11:06:32;;;;;;;29.45;13.65;;;;;;;2.62;100.00;101866.75;5033947;28;20117;-92
2022/12/05 11:09:18;;;;;;;29.73;12.68;;;;;;;2.56;100.00;101856.88;5031449;28;20061;-94
2022/12/05 11:12:04;;;;;;;27.97;13.33;;;;;;;2.58;100.00;101853.03;5033628;28;20041;-95
2022/12/05 11:14:32;;;;;;;26.60;12.15;;;;;;;2.61;100.00;101856.34;5042573;28;20048;-94
2022/12/05 11:17:00;;;;;;;24.90;12.02;;;;;;;2.61;100.00;101853.69;5053138;28;20421;-95
2022/12/05 11:19:27;;;;;;;24.35;12.32;;;;;;;2.67;100.00;101858.28;5036453;28;20541;-94
2022/12/05 11:21:53;;;;;;;25.65;12.15;;;;;;;2.67;100.00;101851.13;5039917;28;20029;-93
2022/12/05 11:24:25;;;;;;;23.67;11.85;;;;;;;2.66;100.00;101848.69;5023260;28;20034;-94
2022/12/05 11:26:51;;;;;;;22.63;11.70;;;;;;;2.60;100.00;101847.59;5029878;28;20065;-95
2022/12/05 11:29:36;;;;;;;25.17;12.80;;;;;;;2.73;100.00;101854.91;5033261;28;20030;-96
2022/12/05 11:32:22;;;;;;;25.35;11.50;;;;;;;2.77;100.00;101853.53;5034286;28;20034;-94
2022/12/05 11:35:00;;;;;;;24.98;10.95;;;;;;;2.77;100.00;101853.53;5035262;28;20033;-93
2022/12/05 11:37:32;;;;;;;23.23;11.67;;;;;;;2.80;100.00;101847.88;5032885;28;20060;-96
2022/12/05 11:40:00;;;;;;;21.10;10.90;;;;;;;2.79;100.00;101854.19;5040669;28;20471;-95
2022/12/05 11:42:42;;;;;;;18.08;9.88;;;;;;;2.73;100.00;101850.44;5042822;28;20025;-95
2022/12/05 11:45:28;;;;;;;20.08;9.55;;;;;;;2.71;100.00;101844.50;5033016;28;20033;-94
2022/12/05 11:48:20;;;;;;;19.30;10.77;;;;;;;2.78;100.00;101841.94;5016131;28;20041;-91
2022/12/05 11:51:01;;;;;;;16.15;9.38;;;;;;;2.75;100.00;101838.84;5025510;28;20326;-93
2022/12/05 11:54:02;;;;;;;18.60;8.65;;;;;;;2.81;100.00;101849.53;5018838;28;20033;-93
2022/12/05 11:56:38;;;;;;;17.20;8.40;;;;;;;2.79;100.00;101856.00;5019445;28;20030;-93
2022/12/05 11:59:22;;;;;;;21.80;9.83;;;;;;;2.75;100.00;101849.44;5026644;28;20299;-93
2022/12/05 12:02:19;;;;;;;18.98;10.18;;;;;;;2.69;100.00;101850.97;5024428;28;20033;-93
2022/12/05 12:05:22;;;;;;;17.20;8.80;;;;;;;2.68;100.00;101854.63;5023420;28;20022;-93
2022/12/05 12:08:07;;;;;;;14.65;8.70;;;;;;;2.67;100.00;101856.44;5020613;28;20460;-92
2022/12/05 12:11:08;;;;;;;16.45;9.07;;;;;;;2.69;100.00;101857.09;5029337;28;20037;-94
2022/12/05 12:14:00;;;;;;;17.92;9.40;;;;;;;2.66;100.00;101846.03;4954230;29;20062;-93
2022/12/05 12:16:33;;;;;;;16.20;8.97;;;;;;;2.68;100.00;101857.28;5034786;28;20037;-92
2022/12/05 12:19:34;;;;;;;17.27;9.07;;;;;;;2.68;100.00;101850.13;5017373;28;21026;-93
2022/12/05 12:22:44;;;;;;;13.98;8.40;;;;;;;2.60;100.00;101836.16;5074738;22;20103;-94
2022/12/05 12:25:37;;;;;;;16.50;9.50;;;;;;;2.65;100.00;101854.97;5023714;28;20040;-94
2022/12/05 12:28:25;;;;;;;15.20;8.20;;;;;;;2.62;100.00;101858.81;5053898;28;20026;-94
2022/12/05 12:31:31;;;;;;;15.30;8.55;;;;;;;2.62;100.00;101855.34;5054315;28;20028;-94
2022/12/05 12:34:33;;;;;;;14.13;7.95;;;;;;;2.65;100.00;101857.63;5066528;28;20024;-93
2022/12/05 12:37:31;;;;;;;13.80;8.00;;;;;;;2.48;100.00;101833.97;5072491;28;20021;-93
2022/12/05 12:40:35;;;;;;;13.77;8.53;;;;;;;2.52;100.00;101842.34;5033905;28;20307;-94
2022/12/05 12:43:38;;;;;;;15.38;8.32;;;;;;;2.50;100.00;101850.47;5065075;28;20033;-94
2022/12/05 12:46:52;;;;;;;;;;;;;;;;;;;;;
2022/12/05 12:49:59;;;;;;;17.88;9.10;;;;;;;2.27;100.00;101824.88;5023455;28;20117;-96